DEDDX EDHL-ZZZZ
Flight info
| Callsign | DEDDX |
|---|---|
| Flight time | N/A |
| Altitude | |
| Route | |
| Aircraft | C172 |
Departure
| Time | 2026-05-07 07:33 |
|---|---|
| Airport | Lübeck Blankensee Airport (EDHL) |
Arrival
| Time | N/A |
|---|---|
| Airport | ZZZZ |
| Time | Latitude | Longitude | Altitude | Speed | Heading |
|---|---|---|---|---|---|
| 2026-05-07 07:28 | 53.80482 | 10.70311 | 54 ft | 0 kts | 325° |
| 2026-05-07 07:30 | 53.80483 | 10.70310 | 54 ft | 2 kts | 326° |
| 2026-05-07 07:30 | 53.80470 | 10.70311 | 54 ft | 10 kts | 102° |
| 2026-05-07 07:30 | 53.80411 | 10.70267 | 53 ft | 18 kts | 258° |
| 2026-05-07 07:31 | 53.80358 | 10.70121 | 55 ft | 7 kts | 168° |
| 2026-05-07 07:31 | 53.80356 | 10.70122 | 55 ft | 0 kts | 168° |
| 2026-05-07 07:31 | 53.80344 | 10.70129 | 55 ft | 7 kts | 163° |
| 2026-05-07 07:32 | 53.80263 | 10.70149 | 56 ft | 16 kts | 159° |
| 2026-05-07 07:32 | 53.80204 | 10.70266 | 53 ft | 6 kts | 38° |
| 2026-05-07 07:32 | 53.80250 | 10.70445 | 53 ft | 42 kts | 71° |
| 2026-05-07 07:32 | 53.80384 | 10.71074 | 195 ft | 63 kts | 76° |
| 2026-05-07 07:33 | 53.80516 | 10.71772 | 485 ft | 62 kts | 75° |
| 2026-05-07 07:33 | 53.80638 | 10.72459 | 792 ft | 67 kts | 73° |
| 2026-05-07 07:33 | 53.80796 | 10.73266 | 1094 ft | 74 kts | 73° |
| 2026-05-07 07:33 | 53.81290 | 10.73497 | 1278 ft | 105 kts | 342° |
| 2026-05-07 07:34 | 53.81958 | 10.72843 | 1315 ft | 121 kts | 322° |
| 2026-05-07 07:34 | 53.82018 | 10.71478 | 1411 ft | 120 kts | 246° |
| 2026-05-07 07:34 | 53.81660 | 10.70158 | 1413 ft | 126 kts | 247° |
| 2026-05-07 07:34 | 53.81349 | 10.68832 | 1379 ft | 114 kts | 247° |
| 2026-05-07 07:35 | 53.81047 | 10.67606 | 1268 ft | 108 kts | 245° |
| 2026-05-07 07:35 | 53.80589 | 10.66720 | 1039 ft | 97 kts | 201° |
| 2026-05-07 07:35 | 53.79996 | 10.66743 | 791 ft | 78 kts | 131° |
| 2026-05-07 07:35 | 53.79832 | 10.67534 | 491 ft | 79 kts | 90° |
| 2026-05-07 07:36 | 53.79888 | 10.68414 | 320 ft | 70 kts | 78° |
| 2026-05-07 07:36 | 53.79966 | 10.69170 | 179 ft | 60 kts | 70° |
| 2026-05-07 07:36 | 53.80124 | 10.69822 | 141 ft | 61 kts | 70° |
| 2026-05-07 07:36 | 53.80264 | 10.70525 | 72 ft | 59 kts | 72° |
| 2026-05-07 07:37 | 53.80382 | 10.71125 | 64 ft | 57 kts | 72° |
| 2026-05-07 07:37 | 53.80535 | 10.71764 | 300 ft | 61 kts | 68° |
| 2026-05-07 07:37 | 53.80689 | 10.72531 | 541 ft | 75 kts | 74° |
| 2026-05-07 07:37 | 53.80858 | 10.73371 | 889 ft | 77 kts | 62° |
| 2026-05-07 07:38 | 53.81414 | 10.73700 | 1139 ft | 90 kts | 359° |
| 2026-05-07 07:38 | 53.82009 | 10.73409 | 1196 ft | 94 kts | 346° |
| 2026-05-07 07:38 | 53.82605 | 10.72639 | 701 ft | 133 kts | 278° |
| 2026-05-07 07:38 | 53.82459 | 10.71359 | 846 ft | 108 kts | 255° |
| 2026-05-07 07:39 | 53.82254 | 10.70172 | 970 ft | 100 kts | 253° |
| 2026-05-07 07:39 | 53.82042 | 10.69074 | 1066 ft | 97 kts | 249° |
| 2026-05-07 07:39 | 53.81801 | 10.68070 | 972 ft | 88 kts | 244° |
| 2026-05-07 07:39 | 53.81533 | 10.67176 | 807 ft | 82 kts | 226° |
| 2026-05-07 07:40 | 53.81039 | 10.66896 | 611 ft | 72 kts | 158° |
| 2026-05-07 07:40 | 53.80581 | 10.67127 | 466 ft | 62 kts | 133° |
| 2026-05-07 07:40 | 53.80371 | 10.67708 | 370 ft | 58 kts | 111° |
| 2026-05-07 07:40 | 53.80089 | 10.68295 | 279 ft | 70 kts | 116° |
| 2026-05-07 07:41 | 53.79989 | 10.69009 | 211 ft | 60 kts | 78° |
| 2026-05-07 07:41 | 53.80098 | 10.69643 | 126 ft | 57 kts | 69° |
| 2026-05-07 07:41 | 53.80229 | 10.70325 | 84 ft | 57 kts | 72° |
| 2026-05-07 07:41 | 53.80349 | 10.70925 | 60 ft | 52 kts | 72° |
| 2026-05-07 07:42 | 53.80463 | 10.71526 | 60 ft | 56 kts | 71° |
| 2026-05-07 07:42 | 53.80710 | 10.72059 | 328 ft | 65 kts | 22° |
| 2026-05-07 07:42 | 53.81246 | 10.71850 | 471 ft | 95 kts | 340° |
| 2026-05-07 07:42 | 53.81845 | 10.71265 | 610 ft | 111 kts | 326° |
| 2026-05-07 07:43 | 53.81745 | 10.70070 | 618 ft | 117 kts | 220° |
| 2026-05-07 07:43 | 53.81250 | 10.68998 | 657 ft | 113 kts | 237° |
| 2026-05-07 07:43 | 53.80808 | 10.68042 | 572 ft | 99 kts | 223° |
| 2026-05-07 07:43 | 53.80305 | 10.67644 | 487 ft | 72 kts | 152° |
| 2026-05-07 07:44 | 53.79964 | 10.68131 | 399 ft | 62 kts | 94° |
| 2026-05-07 07:44 | 53.79969 | 10.68865 | 258 ft | 64 kts | 78° |
| 2026-05-07 07:44 | 53.80139 | 10.69693 | 158 ft | 74 kts | 75° |
| 2026-05-07 07:44 | 53.80263 | 10.70477 | 74 ft | 59 kts | 72° |
| 2026-05-07 07:45 | 53.80391 | 10.71095 | 59 ft | 57 kts | 76° |
| 2026-05-07 07:45 | 53.80469 | 10.71553 | 60 ft | 16 kts | 72° |
| 2026-05-07 07:45 | 53.80473 | 10.71579 | 61 ft | 0 kts | 79° |
| 2026-05-07 07:45 | 53.80483 | 10.71641 | 58 ft | 11 kts | 77° |
| 2026-05-07 07:46 | 53.80514 | 10.71821 | 58 ft | 20 kts | 74° |
| 2026-05-07 07:46 | 53.80564 | 10.71972 | 54 ft | 9 kts | 345° |
| 2026-05-07 07:46 | 53.80598 | 10.71880 | 56 ft | 11 kts | 292° |
| 2026-05-07 07:46 | 53.80630 | 10.71749 | 57 ft | 14 kts | 297° |
| 2026-05-07 07:47 | 53.80661 | 10.71567 | 56 ft | 17 kts | 248° |
| 2026-05-07 07:47 | 53.80625 | 10.71368 | 57 ft | 19 kts | 253° |
| 2026-05-07 07:47 | 53.80580 | 10.71139 | 58 ft | 22 kts | 252° |
| 2026-05-07 07:47 | 53.80527 | 10.70859 | 54 ft | 28 kts | 252° |
| 2026-05-07 07:48 | 53.80473 | 10.70584 | 53 ft | 25 kts | 252° |
| 2026-05-07 07:48 | 53.80465 | 10.70422 | 53 ft | 9 kts | 336° |
| 2026-05-07 07:48 | 53.80529 | 10.70347 | 53 ft | 13 kts | 328° |
| 2026-05-07 07:48 | 53.80600 | 10.70401 | 53 ft | 10 kts | 53° |
| 2026-05-07 07:49 | 53.80565 | 10.70428 | 53 ft | 8 kts | 229° |
| 2026-05-07 07:49 | 53.80559 | 10.70418 | 53 ft | 0 kts | 221° |